createdAt,value
2022-10-22T00:00:11.021Z,62.82
2022-10-22T00:02:38.163Z,62.65
2022-10-22T00:05:05.403Z,63.15
2022-10-22T00:07:32.543Z,62.88
2022-10-22T00:09:59.656Z,63.12
2022-10-22T00:12:26.734Z,62.82
2022-10-22T00:14:53.803Z,62.86
2022-10-22T00:17:20.888Z,62.85
2022-10-22T00:19:47.969Z,62.85
2022-10-22T00:22:15.054Z,62.71
2022-10-22T00:24:42.187Z,62.84
2022-10-22T00:27:09.265Z,62.80
2022-10-22T00:29:36.326Z,62.71
2022-10-22T00:32:03.428Z,62.96
2022-10-22T00:34:30.538Z,62.93
2022-10-22T00:36:57.601Z,62.92
2022-10-22T00:39:24.677Z,62.72
2022-10-22T00:41:51.817Z,63.00
2022-10-22T00:44:18.879Z,62.81
2022-10-22T00:46:45.963Z,62.78
2022-10-22T00:49:13.072Z,62.78
2022-10-22T00:51:40.141Z,62.83
2022-10-22T00:54:07.281Z,62.65
2022-10-22T00:56:34.407Z,62.57
2022-10-22T00:59:01.562Z,62.82
2022-10-22T01:01:28.661Z,62.56
2022-10-22T01:03:55.754Z,62.84
2022-10-22T01:06:22.813Z,62.83
2022-10-22T01:08:49.916Z,62.78
2022-10-22T01:11:17.082Z,62.73
2022-10-22T01:13:44.167Z,62.50
2022-10-22T01:16:11.306Z,62.94
2022-10-22T01:18:38.382Z,62.67
2022-10-22T01:21:05.475Z,62.76
2022-10-22T01:23:32.549Z,62.70
2022-10-22T01:25:59.738Z,62.82
2022-10-22T01:28:26.825Z,62.97
2022-10-22T01:30:53.897Z,62.56
2022-10-22T01:33:20.969Z,62.97
2022-10-22T01:35:48.076Z,62.94
2022-10-22T01:38:15.230Z,62.74
2022-10-22T01:40:42.310Z,62.91
2022-10-22T01:43:09.368Z,62.89
2022-10-22T01:45:36.607Z,62.85
2022-10-22T01:48:03.669Z,63.20
2022-10-22T01:50:30.738Z,63.28
2022-10-22T01:52:57.811Z,62.93
2022-10-22T01:55:24.894Z,62.81
2022-10-22T01:57:51.975Z,62.90
2022-10-22T02:00:19.039Z,63.04
2022-10-22T02:05:33.151Z,63.12
2022-10-22T02:08:00.216Z,63.19
2022-10-22T02:10:27.286Z,63.24
2022-10-22T02:12:54.350Z,63.19
2022-10-22T02:15:21.888Z,63.08
2022-10-22T02:17:49.044Z,63.17
2022-10-22T02:20:16.119Z,62.75
2022-10-22T02:22:43.596Z,62.97
2022-10-22T02:25:10.818Z,63.00
2022-10-22T02:27:37.922Z,62.94
2022-10-22T02:30:05.061Z,62.98
2022-10-22T02:32:32.268Z,63.10
2022-10-22T02:34:59.366Z,63.02
2022-10-22T02:37:26.442Z,63.13
2022-10-22T02:39:53.530Z,63.05
2022-10-22T02:42:20.646Z,63.20
2022-10-22T02:44:47.715Z,62.87
2022-10-22T02:47:14.786Z,62.98
2022-10-22T02:49:41.935Z,62.96
2022-10-22T02:52:09.026Z,63.07
2022-10-22T02:54:36.110Z,63.11
2022-10-22T02:57:03.217Z,63.04
2022-10-22T02:59:30.290Z,63.02
2022-10-22T03:01:57.405Z,63.35
2022-10-22T03:04:24.537Z,62.79
2022-10-22T03:06:51.723Z,63.12
2022-10-22T03:09:21.371Z,63.12
2022-10-22T03:11:51.216Z,63.26
2022-10-22T03:14:18.385Z,62.98
2022-10-22T03:16:45.472Z,63.26
2022-10-22T03:19:12.557Z,62.80
2022-10-22T03:21:39.626Z,63.32
2022-10-22T03:24:06.729Z,63.19
2022-10-22T03:26:33.852Z,63.33
2022-10-22T03:29:00.979Z,63.22
2022-10-22T03:31:28.061Z,63.11
2022-10-22T03:33:55.148Z,63.35
2022-10-22T03:36:22.231Z,62.89
2022-10-22T03:38:49.378Z,63.41
2022-10-22T03:41:16.495Z,63.12
2022-10-22T03:43:45.178Z,62.98
2022-10-22T03:46:12.268Z,62.91
2022-10-22T03:48:39.424Z,63.36
2022-10-22T03:51:06.501Z,63.30
2022-10-22T03:53:33.619Z,63.26
2022-10-22T03:56:00.699Z,63.03
2022-10-22T03:58:27.870Z,63.37
2022-10-22T04:00:55.004Z,63.04
2022-10-22T04:03:22.123Z,62.99
2022-10-22T04:05:49.207Z,63.36
2022-10-22T04:08:16.278Z,63.32
2022-10-22T04:10:43.379Z,63.17
2022-10-22T04:13:10.475Z,63.06
2022-10-22T04:15:37.619Z,63.18
2022-10-22T04:18:04.727Z,62.95
2022-10-22T04:20:31.820Z,63.40
2022-10-22T04:22:58.900Z,63.03
2022-10-22T04:25:26.056Z,63.06
2022-10-22T04:27:53.110Z,63.43
2022-10-22T04:30:20.174Z,63.11
2022-10-22T04:32:47.271Z,63.30
2022-10-22T04:35:14.391Z,63.15
2022-10-22T04:37:41.769Z,63.43
2022-10-22T04:40:09.308Z,63.18
2022-10-22T04:42:36.388Z,63.29
2022-10-22T04:45:03.459Z,63.33
2022-10-22T04:47:30.538Z,63.04
2022-10-22T04:49:57.605Z,63.18
2022-10-22T04:52:24.675Z,63.04
2022-10-22T04:54:51.751Z,63.23
2022-10-22T04:57:18.830Z,63.08
2022-10-22T04:59:45.951Z,63.00
2022-10-22T05:02:13.012Z,63.15
2022-10-22T05:04:40.104Z,63.25
2022-10-22T05:07:07.199Z,63.32
2022-10-22T05:09:34.310Z,63.45
2022-10-22T05:12:01.371Z,63.13
2022-10-22T05:14:28.445Z,63.33
2022-10-22T05:16:55.544Z,63.13
2022-10-22T05:19:24.163Z,63.32
2022-10-22T05:21:51.413Z,63.33
2022-10-22T05:24:18.496Z,63.40
2022-10-22T05:26:45.574Z,63.43
2022-10-22T05:29:12.681Z,63.43
2022-10-22T05:31:39.775Z,63.17
2022-10-22T05:34:06.899Z,62.99
2022-10-22T05:36:33.983Z,63.14
2022-10-22T05:39:01.102Z,63.32
2022-10-22T05:41:28.215Z,63.38
2022-10-22T05:43:55.454Z,63.27
2022-10-22T05:46:23.216Z,63.08
2022-10-22T05:48:50.552Z,63.35
2022-10-22T05:51:17.693Z,63.19
2022-10-22T05:53:44.808Z,63.22
2022-10-22T05:56:11.879Z,63.34
2022-10-22T05:58:38.967Z,62.94
2022-10-22T06:01:06.088Z,63.05
2022-10-22T06:03:33.170Z,62.97
2022-10-22T06:06:00.292Z,63.06
2022-10-22T06:08:27.361Z,62.97
2022-10-22T06:10:54.425Z,63.12
2022-10-22T06:13:22.878Z,63.20
2022-10-22T06:15:49.942Z,63.02
2022-10-22T06:18:17.082Z,63.05
2022-10-22T06:20:45.468Z,63.26
2022-10-22T06:23:12.588Z,63.11
2022-10-22T06:25:39.727Z,62.98
2022-10-22T06:28:06.791Z,63.31
2022-10-22T06:30:33.881Z,63.03
2022-10-22T06:33:00.976Z,63.07
2022-10-22T06:35:28.108Z,63.21
2022-10-22T06:37:55.169Z,63.32
2022-10-22T06:40:22.272Z,63.01
2022-10-22T06:42:49.343Z,63.00
2022-10-22T06:45:16.456Z,63.07
2022-10-22T06:47:43.799Z,63.36
2022-10-22T06:50:11.115Z,62.91
2022-10-22T06:52:38.244Z,63.21
2022-10-22T06:55:05.386Z,63.03
2022-10-22T06:57:32.474Z,62.93
2022-10-22T06:59:59.554Z,63.36
2022-10-22T07:02:26.708Z,63.21
2022-10-22T07:04:53.837Z,62.99
2022-10-22T07:07:20.918Z,62.95
2022-10-22T07:09:50.575Z,63.17
2022-10-22T07:12:18.513Z,63.08
2022-10-22T07:14:45.597Z,62.98
2022-10-22T07:17:12.696Z,63.10
2022-10-22T07:19:39.793Z,63.13
2022-10-22T07:22:06.867Z,63.06
2022-10-22T07:24:33.936Z,62.85
2022-10-22T07:27:01.075Z,62.81
2022-10-22T07:29:28.422Z,62.91
2022-10-22T07:31:55.494Z,63.00
2022-10-22T07:34:22.578Z,63.11
2022-10-22T07:36:49.714Z,62.93
2022-10-22T07:39:16.791Z,62.76
2022-10-22T07:41:43.869Z,63.04
2022-10-22T07:44:10.947Z,62.89
2022-10-22T07:46:38.041Z,63.10
2022-10-22T07:49:05.149Z,63.27
2022-10-22T07:51:32.233Z,63.15
2022-10-22T07:53:59.388Z,62.66
2022-10-22T07:56:26.467Z,62.54
2022-10-22T07:58:53.607Z,62.69
2022-10-22T08:01:20.726Z,62.78
2022-10-22T08:03:48.847Z,62.72
2022-10-22T08:06:15.978Z,62.80
2022-10-22T08:08:43.674Z,62.97
2022-10-22T08:11:11.005Z,62.89
2022-10-22T08:13:42.774Z,62.81
2022-10-22T08:16:12.120Z,62.43
2022-10-22T08:18:39.573Z,62.69
2022-10-22T08:21:06.644Z,62.56
2022-10-22T08:23:34.455Z,62.91
2022-10-22T08:26:03.020Z,62.67
2022-10-22T08:28:31.290Z,62.68
2022-10-22T08:30:58.395Z,62.57
2022-10-22T08:33:25.491Z,62.91
2022-10-22T08:35:52.685Z,62.42
2022-10-22T08:38:19.754Z,62.46
2022-10-22T08:40:46.832Z,62.50
2022-10-22T08:43:13.936Z,62.81
2022-10-22T08:45:41.547Z,62.66
2022-10-22T08:48:08.671Z,62.58
2022-10-22T08:50:35.901Z,62.69
2022-10-22T08:53:02.976Z,62.70
2022-10-22T08:55:32.734Z,62.52
2022-10-22T08:58:03.545Z,62.63
2022-10-22T09:00:30.675Z,62.48
2022-10-22T09:02:57.763Z,62.67
2022-10-22T09:05:25.176Z,62.49
2022-10-22T09:07:53.162Z,62.44
2022-10-22T09:10:20.356Z,62.30
2022-10-22T09:12:47.463Z,62.64
2022-10-22T09:15:15.047Z,62.49
2022-10-22T09:17:42.501Z,62.37
2022-10-22T09:20:09.880Z,62.25
2022-10-22T09:22:37.266Z,62.35
2022-10-22T09:25:04.419Z,62.42
2022-10-22T09:27:31.538Z,62.45
2022-10-22T09:29:58.641Z,62.69
2022-10-22T09:32:25.876Z,62.52
2022-10-22T09:34:52.975Z,62.54
2022-10-22T09:37:20.136Z,62.49
2022-10-22T09:39:47.230Z,62.50
2022-10-22T09:42:14.375Z,62.35
2022-10-22T09:44:44.934Z,62.39
2022-10-22T09:47:14.800Z,62.54
2022-10-22T09:49:42.843Z,62.59
2022-10-22T09:52:12.734Z,62.25
2022-10-22T09:54:39.823Z,62.38
2022-10-22T09:57:06.905Z,62.49
2022-10-22T09:59:34.070Z,62.38
2022-10-22T10:02:13.419Z,62.16
2022-10-22T10:04:47.668Z,62.30
2022-10-22T10:07:14.918Z,62.02
2022-10-22T10:09:42.000Z,62.01
2022-10-22T10:12:09.176Z,62.26
2022-10-22T10:14:36.270Z,62.28
2022-10-22T10:17:03.355Z,62.03
2022-10-22T10:19:30.456Z,61.90
2022-10-22T10:21:57.827Z,62.02
2022-10-22T10:24:24.931Z,62.25
2022-10-22T10:26:52.014Z,62.31
2022-10-22T10:29:19.099Z,61.93
2022-10-22T10:31:46.242Z,62.23
2022-10-22T10:34:13.335Z,62.01
2022-10-22T10:36:40.403Z,61.92
2022-10-22T10:39:07.487Z,61.99
2022-10-22T10:41:34.610Z,61.89
2022-10-22T10:44:01.727Z,61.63
2022-10-22T10:46:30.302Z,61.54
2022-10-22T10:48:59.352Z,61.49
2022-10-22T10:51:26.427Z,61.75
2022-10-22T10:53:53.507Z,61.79
2022-10-22T10:56:20.633Z,61.44
2022-10-22T10:58:47.727Z,61.63
2022-10-22T11:01:14.853Z,61.80
2022-10-22T11:03:42.068Z,61.70
2022-10-22T11:06:09.165Z,61.57
2022-10-22T11:08:36.326Z,61.88
2022-10-22T11:11:03.541Z,61.84
2022-10-22T11:13:30.752Z,62.12
2022-10-22T11:15:57.913Z,61.93
2022-10-22T11:18:25.027Z,61.46
2022-10-22T11:20:52.102Z,61.66
2022-10-22T11:23:20.886Z,61.78
2022-10-22T11:25:48.633Z,61.46
2022-10-22T11:31:02.831Z,61.67
2022-10-22T11:33:29.923Z,61.58
2022-10-22T11:35:57.047Z,61.58
2022-10-22T11:38:24.170Z,61.66
2022-10-22T11:40:51.263Z,61.47
2022-10-22T11:43:18.369Z,61.93
2022-10-22T11:45:45.495Z,61.72
2022-10-22T11:48:13.166Z,61.91
2022-10-22T11:50:40.563Z,61.90
2022-10-22T11:53:09.255Z,62.06
2022-10-22T11:55:36.483Z,61.99
2022-10-22T11:58:03.613Z,61.99
2022-10-22T12:00:31.270Z,61.61
2022-10-22T12:02:58.367Z,61.64
2022-10-22T12:05:25.533Z,62.00
2022-10-22T12:07:52.664Z,62.11
2022-10-22T12:10:19.766Z,61.90
2022-10-22T12:12:46.850Z,62.12
2022-10-22T12:15:14.000Z,62.27
2022-10-22T12:17:41.096Z,62.26
2022-10-22T12:20:08.177Z,62.44
2022-10-22T12:22:38.374Z,62.34
2022-10-22T12:25:05.587Z,61.93
2022-10-22T12:27:32.695Z,62.00
2022-10-22T12:29:59.783Z,62.00
2022-10-22T12:32:26.859Z,61.98
2022-10-22T12:34:54.019Z,62.21
2022-10-22T12:37:21.155Z,61.63
2022-10-22T12:39:48.251Z,61.93
2022-10-22T12:42:15.458Z,61.88
2022-10-22T12:44:42.575Z,61.76
2022-10-22T12:47:09.694Z,61.73
2022-10-22T12:49:36.935Z,61.61
2022-10-22T12:52:04.341Z,61.71
2022-10-22T12:54:31.449Z,62.03
2022-10-22T12:56:58.695Z,61.88
2022-10-22T12:59:25.844Z,61.60
2022-10-22T13:01:53.012Z,61.84
2022-10-22T13:04:20.176Z,61.59
2022-10-22T13:06:47.289Z,61.40
2022-10-22T13:09:14.585Z,61.48
2022-10-22T13:11:41.811Z,61.54
2022-10-22T13:14:08.874Z,61.43
2022-10-22T13:19:03.079Z,61.28
2022-10-22T13:21:30.292Z,61.54
2022-10-22T13:23:57.468Z,61.68
2022-10-22T13:26:24.557Z,61.43
2022-10-22T13:28:51.744Z,61.28
2022-10-22T13:31:18.890Z,61.71
2022-10-22T13:33:45.968Z,61.26
2022-10-22T13:36:13.042Z,61.48
2022-10-22T13:38:40.189Z,61.41
2022-10-22T13:41:07.247Z,61.20
2022-10-22T13:43:34.310Z,61.18
2022-10-22T13:46:01.629Z,61.14
2022-10-22T13:48:28.748Z,61.29
2022-10-22T13:50:55.885Z,61.26
2022-10-22T13:53:22.970Z,61.28
2022-10-22T13:55:53.084Z,61.46
2022-10-22T13:58:20.165Z,61.58
2022-10-22T14:00:47.309Z,61.67
2022-10-22T14:03:14.462Z,61.46
2022-10-22T14:05:41.589Z,61.27
2022-10-22T14:08:08.655Z,61.05
2022-10-22T14:10:35.754Z,61.18
2022-10-22T14:13:02.825Z,61.16
2022-10-22T14:15:29.957Z,61.16
2022-10-22T14:17:57.041Z,61.41
2022-10-22T14:20:24.436Z,61.08
2022-10-22T14:22:51.579Z,61.41
2022-10-22T14:25:18.659Z,61.21
2022-10-22T14:27:45.738Z,61.18
2022-10-22T14:30:12.824Z,61.36
2022-10-22T14:32:40.226Z,61.22
2022-10-22T14:35:07.516Z,61.21
2022-10-22T14:37:34.603Z,61.61
2022-10-22T14:40:02.667Z,61.58
2022-10-22T14:42:30.093Z,61.32
2022-10-22T14:44:57.234Z,61.46
2022-10-22T14:47:24.347Z,61.50
2022-10-22T14:49:51.459Z,61.48
2022-10-22T14:52:20.191Z,61.45
2022-10-22T14:54:48.639Z,61.44
2022-10-22T14:57:16.621Z,61.68
2022-10-22T14:59:43.742Z,61.26
2022-10-22T15:02:10.815Z,61.28
2022-10-22T15:04:37.890Z,61.45
2022-10-22T15:07:04.974Z,61.42
2022-10-22T15:09:32.080Z,61.74
2022-10-22T15:11:59.163Z,61.57
2022-10-22T15:14:26.258Z,61.54
2022-10-22T15:16:53.410Z,61.52
2022-10-22T15:19:20.520Z,61.40
2022-10-22T15:21:47.603Z,61.52
2022-10-22T15:24:14.711Z,61.33
2022-10-22T15:26:41.827Z,61.24
2022-10-22T15:29:08.998Z,61.51
2022-10-22T15:31:36.319Z,61.47
2022-10-22T15:34:03.486Z,61.36
2022-10-22T15:36:30.595Z,61.41
2022-10-22T15:38:57.705Z,61.23
2022-10-22T15:41:24.790Z,61.43
2022-10-22T15:43:51.868Z,61.45
2022-10-22T15:46:18.957Z,61.54
2022-10-22T15:48:46.070Z,61.21
2022-10-22T15:51:13.214Z,61.27
2022-10-22T15:53:40.336Z,61.20
2022-10-22T15:56:07.468Z,61.16
2022-10-22T15:58:34.576Z,61.54
2022-10-22T16:01:01.736Z,61.28
2022-10-22T16:03:28.921Z,61.41
2022-10-22T16:05:57.311Z,61.39
2022-10-22T16:08:24.412Z,61.44
2022-10-22T16:10:51.522Z,61.48
2022-10-22T16:13:20.854Z,61.73
2022-10-22T16:15:47.922Z,61.78
2022-10-22T16:18:14.986Z,61.97
2022-10-22T16:20:42.083Z,61.52
2022-10-22T16:23:09.348Z,61.76
2022-10-22T16:25:36.437Z,61.37
2022-10-22T16:28:06.435Z,61.04
2022-10-22T16:30:34.075Z,61.59
2022-10-22T16:33:03.360Z,61.67
2022-10-22T16:35:30.831Z,61.66
2022-10-22T16:37:57.919Z,61.56
2022-10-22T16:40:25.004Z,61.43
2022-10-22T16:42:52.107Z,61.63
2022-10-22T16:45:19.256Z,61.24
2022-10-22T16:47:48.448Z,61.39
2022-10-22T16:50:15.611Z,61.44
2022-10-22T16:52:42.710Z,61.13
2022-10-22T16:55:09.832Z,61.22
2022-10-22T16:57:36.995Z,61.26
2022-10-22T17:00:04.108Z,61.12
2022-10-22T17:02:31.282Z,61.67
2022-10-22T17:04:58.426Z,61.59
2022-10-22T17:07:25.608Z,60.94
2022-10-22T17:09:52.691Z,61.23
2022-10-22T17:12:19.883Z,61.22
2022-10-22T17:14:47.057Z,61.41
2022-10-22T17:17:14.177Z,61.39
2022-10-22T17:19:41.315Z,61.08
2022-10-22T17:22:08.498Z,61.33
2022-10-22T17:24:36.180Z,61.35
2022-10-22T17:29:50.333Z,61.21
2022-10-22T17:32:17.426Z,61.23
2022-10-22T17:34:44.514Z,61.39
2022-10-22T17:37:12.786Z,61.06
2022-10-22T17:39:39.860Z,61.12
2022-10-22T17:42:06.999Z,60.90
2022-10-22T17:44:34.127Z,61.58
2022-10-22T17:47:01.825Z,60.98
2022-10-22T17:49:28.972Z,61.17
2022-10-22T17:51:56.127Z,61.18
2022-10-22T17:54:23.219Z,61.13
2022-10-22T17:56:50.383Z,61.10
2022-10-22T17:59:18.031Z,61.17
2022-10-22T18:01:46.923Z,61.23
2022-10-22T18:04:14.311Z,61.21
2022-10-22T18:06:41.424Z,61.11
2022-10-22T18:09:08.513Z,61.09
2022-10-22T18:11:36.604Z,61.31
2022-10-22T18:14:03.730Z,61.57
2022-10-22T18:16:30.837Z,61.58
2022-10-22T18:18:57.973Z,61.29
2022-10-22T18:21:26.099Z,61.32
2022-10-22T18:23:53.187Z,61.21
2022-10-22T18:26:22.922Z,61.09
2022-10-22T18:28:53.061Z,61.50
2022-10-22T18:31:20.238Z,61.58
2022-10-22T18:33:47.380Z,61.07
2022-10-22T18:36:14.518Z,61.26
2022-10-22T18:38:41.596Z,61.32
2022-10-22T18:41:08.667Z,61.56
2022-10-22T18:43:35.814Z,61.16
2022-10-22T18:46:02.890Z,61.50
2022-10-22T18:48:29.984Z,61.06
2022-10-22T18:50:57.531Z,61.24
2022-10-22T18:53:25.385Z,61.43
2022-10-22T18:55:52.443Z,61.09
2022-10-22T18:58:19.524Z,61.24
2022-10-22T19:00:46.628Z,61.51
2022-10-22T19:03:14.007Z,61.45
2022-10-22T19:05:41.100Z,61.29
2022-10-22T19:08:08.195Z,61.18
2022-10-22T19:10:35.289Z,61.11
2022-10-22T19:13:02.360Z,61.24
2022-10-22T19:17:56.465Z,61.07
2022-10-22T19:20:23.580Z,61.31
2022-10-22T19:22:50.702Z,61.49
2022-10-22T19:25:17.817Z,61.40
2022-10-22T19:27:45.250Z,61.53
2022-10-22T19:30:12.475Z,61.20
2022-10-22T19:32:39.592Z,61.32
2022-10-22T19:35:06.705Z,61.46
2022-10-22T19:37:33.803Z,61.38
2022-10-22T19:40:00.923Z,61.38
2022-10-22T19:42:28.024Z,61.26
2022-10-22T19:44:55.168Z,61.18
2022-10-22T19:47:22.249Z,61.38
2022-10-22T19:49:49.326Z,61.39
2022-10-22T19:52:16.466Z,61.31
2022-10-22T19:54:45.654Z,61.41
2022-10-22T19:57:12.739Z,61.32
2022-10-22T19:59:39.815Z,61.15
2022-10-22T20:02:06.881Z,61.27
2022-10-22T20:04:34.035Z,61.40
2022-10-22T20:07:01.105Z,61.48
2022-10-22T20:09:28.231Z,61.12
2022-10-22T20:11:55.318Z,61.41
2022-10-22T20:14:22.383Z,61.42
2022-10-22T20:16:49.504Z,61.30
2022-10-22T20:19:16.581Z,61.27
2022-10-22T20:21:43.718Z,61.39
2022-10-22T20:24:10.852Z,61.52
2022-10-22T20:26:38.004Z,61.28
2022-10-22T20:29:05.213Z,61.29
2022-10-22T20:31:33.120Z,61.20
2022-10-22T20:34:01.068Z,61.19
2022-10-22T20:36:28.189Z,61.20
2022-10-22T20:38:55.288Z,61.19
2022-10-22T20:41:22.406Z,61.27
2022-10-22T20:43:49.550Z,61.49
2022-10-22T20:46:16.628Z,61.15
2022-10-22T20:48:43.705Z,61.35
2022-10-22T20:51:10.929Z,61.31
2022-10-22T20:53:38.096Z,61.49
2022-10-22T20:56:05.740Z,61.28
2022-10-22T20:58:32.924Z,61.54
2022-10-22T21:01:05.420Z,61.56
2022-10-22T21:06:00.739Z,61.41
2022-10-22T21:08:27.847Z,61.54
2022-10-22T21:10:54.911Z,61.41
2022-10-22T21:13:22.053Z,61.10
2022-10-22T21:15:49.126Z,61.23
2022-10-22T21:18:16.198Z,61.29
2022-10-22T21:20:43.282Z,61.04
2022-10-22T21:23:10.367Z,61.47
2022-10-22T21:25:40.814Z,61.32
2022-10-22T21:28:10.410Z,61.22
2022-10-22T21:30:37.483Z,61.27
2022-10-22T21:33:04.562Z,61.39
2022-10-22T21:35:33.383Z,61.43
2022-10-22T21:38:00.527Z,61.05
2022-10-22T21:40:28.006Z,61.40
2022-10-22T21:42:55.081Z,61.38
2022-10-22T21:45:22.641Z,61.21
2022-10-22T21:47:49.855Z,61.48
2022-10-22T21:50:16.931Z,61.41
2022-10-22T21:52:44.048Z,61.63
2022-10-22T21:55:11.104Z,61.84
2022-10-22T21:57:38.221Z,61.68
2022-10-22T22:00:05.353Z,61.48
2022-10-22T22:02:32.479Z,61.63
2022-10-22T22:04:59.564Z,61.67
2022-10-22T22:07:26.676Z,61.92
2022-10-22T22:09:53.764Z,61.80
2022-10-22T22:12:21.249Z,61.66
2022-10-22T22:14:48.323Z,61.67
2022-10-22T22:17:18.659Z,61.71
2022-10-22T22:19:45.867Z,61.75
2022-10-22T22:22:12.985Z,61.73
2022-10-22T22:24:40.070Z,61.42
2022-10-22T22:27:07.226Z,61.78
2022-10-22T22:29:34.420Z,61.37
2022-10-22T22:32:01.514Z,61.48
2022-10-22T22:34:28.587Z,61.63
2022-10-22T22:36:55.682Z,61.71
2022-10-22T22:39:23.551Z,61.75
2022-10-22T22:41:50.790Z,61.50
2022-10-22T22:44:17.959Z,61.54
2022-10-22T22:46:45.052Z,61.37
2022-10-22T22:49:12.149Z,61.57
2022-10-22T22:51:39.308Z,61.43
2022-10-22T22:54:06.415Z,61.71
2022-10-22T22:56:34.575Z,61.63
2022-10-22T22:59:01.699Z,61.74
2022-10-22T23:01:29.070Z,61.73
2022-10-22T23:03:56.231Z,61.28
2022-10-22T23:06:23.409Z,61.57
2022-10-22T23:08:50.632Z,61.27
2022-10-22T23:11:17.942Z,61.59
2022-10-22T23:13:45.022Z,61.58
2022-10-22T23:16:12.123Z,61.47
2022-10-22T23:18:39.207Z,61.56
2022-10-22T23:21:06.454Z,61.71
2022-10-22T23:23:33.617Z,61.69
2022-10-22T23:26:00.686Z,61.38
2022-10-22T23:28:27.761Z,61.63
2022-10-22T23:30:54.819Z,61.68
2022-10-22T23:33:21.902Z,61.23
2022-10-22T23:35:48.976Z,61.43
2022-10-22T23:38:16.109Z,61.61
2022-10-22T23:40:43.171Z,61.37
2022-10-22T23:43:10.248Z,61.62
2022-10-22T23:45:37.329Z,61.69
2022-10-22T23:48:04.394Z,61.57
2022-10-22T23:50:31.544Z,61.23
2022-10-22T23:52:58.688Z,61.24
2022-10-22T23:55:25.798Z,61.49
2022-10-22T23:57:52.914Z,61.23
